Time;durP1;ratioP1;P1;durP2;ratioP2;P2;SDS_P1;SDS_P2;PMS_P1;PMS_P2;Temp;Humidity;BMP_temperature;BMP_pressure;BME280_temperature;BME280_humidity;BME280_pressure;Samples;Min_cycle;Max_cycle;Signal;HPM_P1;HPM_P2
2022/05/01 00:00:18;;;;;;;6.17;4.07;;;;;;;10.95;76.91;101823.81;4996585;28;20233;-53
2022/05/01 00:02:46;;;;;;;5.03;3.43;;;;;;;10.87;76.83;101819.28;5004799;28;20241;-55
2022/05/01 00:05:12;;;;;;;4.20;3.73;;;;;;;10.83;76.36;101818.38;4988119;28;20257;-53
2022/05/01 00:07:39;;;;;;;4.17;3.77;;;;;;;10.84;76.97;101803.47;5005392;28;20727;-53
2022/05/01 00:10:09;;;;;;;3.92;3.42;;;;;;;10.80;76.95;101809.56;4995354;28;20242;-53
2022/05/01 00:12:35;;;;;;;5.53;3.92;;;;;;;10.83;76.15;101806.97;5001101;28;20244;-52
2022/05/01 00:15:02;;;;;;;3.63;3.33;;;;;;;10.80;76.18;101813.06;4995474;28;20253;-53
2022/05/01 00:17:29;;;;;;;3.72;3.38;;;;;;;10.74;76.87;101808.63;4986307;28;20241;-53
2022/05/01 00:19:56;;;;;;;3.43;3.13;;;;;;;10.77;76.38;101813.00;4987172;28;20697;-53
2022/05/01 00:22:23;;;;;;;4.63;3.70;;;;;;;10.72;76.24;101812.94;4995516;28;20246;-53
2022/05/01 00:24:49;;;;;;;4.83;3.43;;;;;;;10.71;76.02;101813.81;5010502;28;20683;-53
2022/05/01 00:27:16;;;;;;;5.50;3.43;;;;;;;10.71;75.36;101813.81;5009788;28;20730;-56
2022/05/01 00:29:43;;;;;;;4.57;3.57;;;;;;;10.67;76.02;101812.00;4999266;28;20256;-52
2022/05/01 00:32:09;;;;;;;3.65;3.28;;;;;;;10.67;75.88;101809.38;5005512;28;20237;-54
2022/05/01 00:37:21;;;;;;;4.73;3.67;;;;;;;10.59;76.19;101808.34;5012520;28;20332;-53
2022/05/01 00:39:48;;;;;;;4.97;3.33;;;;;;;10.51;76.05;101805.59;5004944;28;20303;-52
2022/05/01 00:42:17;;;;;;;6.03;3.80;;;;;;;10.49;76.26;101804.72;5021665;28;20244;-52
2022/05/01 00:44:43;;;;;;;4.87;3.60;;;;;;;10.48;76.05;101800.31;5004929;28;20221;-55
2022/05/01 00:47:09;;;;;;;5.80;3.67;;;;;;;10.48;76.18;101804.66;4990215;28;20245;-54
2022/05/01 00:49:36;;;;;;;3.40;3.10;;;;;;;10.49;76.09;101801.19;4991081;28;20238;-54
2022/05/01 00:52:06;;;;;;;6.30;3.40;;;;;;;10.50;75.64;101802.97;5000628;28;20238;-53
2022/05/01 00:54:34;;;;;;;5.43;3.50;;;;;;;10.47;75.83;101801.16;4996723;28;20261;-60
2022/05/01 00:57:03;;;;;;;5.90;3.47;;;;;;;10.48;76.00;101797.66;5004052;28;20245;-54
2022/05/01 00:59:31;;;;;;;6.13;3.20;;;;;;;10.52;75.57;101807.38;4997384;28;20230;-53
2022/05/01 01:01:57;;;;;;;5.23;4.40;;;;;;;10.49;75.48;101796.84;4990425;28;20807;-58
2022/05/01 01:04:24;;;;;;;3.57;3.27;;;;;;;10.46;75.26;101795.91;5020442;28;20287;-53
2022/05/01 01:06:50;;;;;;;7.27;3.50;;;;;;;10.43;75.49;101798.47;4994174;28;20250;-55
2022/05/01 01:09:18;;;;;;;4.27;3.73;;;;;;;10.42;75.78;101799.31;4995686;28;20230;-53
2022/05/01 01:11:46;;;;;;;3.70;3.40;;;;;;;10.45;75.64;101800.25;4996245;28;20304;-54
2022/05/01 01:14:13;;;;;;;4.17;3.80;;;;;;;10.43;75.24;101795.84;5000370;28;20373;-57
2022/05/01 01:16:41;;;;;;;4.23;3.93;;;;;;;10.44;75.82;101797.59;5011371;28;20665;-53
2022/05/01 01:19:09;;;;;;;5.60;3.77;;;;;;;10.42;75.63;101797.56;5013116;28;20233;-53
2022/05/01 01:21:38;;;;;;;4.00;3.67;;;;;;;10.40;76.54;101801.94;5007136;28;20240;-54
2022/05/01 01:24:08;;;;;;;4.57;3.83;;;;;;;10.35;76.18;101803.56;5002096;28;20226;-53
2022/05/01 01:26:35;;;;;;;5.70;4.23;;;;;;;10.35;76.32;101800.06;5008814;28;20304;-54
2022/05/01 01:31:40;;;;;;;4.30;3.70;;;;;;;10.30;76.57;101802.63;5005507;28;20287;-54
2022/05/01 01:31:48;;;;;;;5.77;3.40;;;;;;;10.28;77.08;101806.94;5007184;28;20291;-53
2022/05/01 01:34:15;;;;;;;4.80;3.23;;;;;;;10.25;77.09;101804.25;5011722;28;20237;-53
2022/05/01 01:36:46;;;;;;;3.70;3.37;;;;;;;10.25;76.61;101799.00;4997360;28;20237;-53
2022/05/01 01:39:12;;;;;;;5.57;3.67;;;;;;;10.25;76.29;101802.56;4991548;28;20236;-52
2022/05/01 01:41:40;;;;;;;5.37;4.20;;;;;;;10.26;76.20;101806.94;5000573;28;20240;-52
2022/05/01 01:44:08;;;;;;;3.67;3.27;;;;;;;10.22;76.24;101812.09;5004327;28;20700;-54
2022/05/01 01:46:34;;;;;;;5.33;3.63;;;;;;;10.18;76.20;101811.13;5016736;28;20264;-53
2022/05/01 01:49:01;;;;;;;4.33;3.93;;;;;;;10.17;76.73;101814.59;5017198;28;20228;-53
2022/05/01 01:51:27;;;;;;;6.00;4.37;;;;;;;10.18;76.18;101804.97;5009348;28;20688;-54
2022/05/01 01:53:55;;;;;;;4.70;4.13;;;;;;;10.12;75.53;101811.03;4993724;28;20238;-53
2022/05/01 01:56:21;;;;;;;4.77;4.27;;;;;;;10.15;76.17;101807.56;4985135;28;20244;-54
2022/05/01 01:58:48;;;;;;;4.20;3.80;;;;;;;10.13;75.82;101811.91;4992817;28;20398;-53
2022/05/01 02:01:14;;;;;;;4.87;4.10;;;;;;;10.14;75.88;101804.03;4998416;28;20240;-54
2022/05/01 02:03:41;;;;;;;4.70;3.97;;;;;;;10.14;76.41;101804.03;5000213;28;20241;-53
2022/05/01 02:06:09;;;;;;;4.47;3.83;;;;;;;10.12;76.90;101810.16;5006711;28;20237;-53
2022/05/01 02:08:35;;;;;;;6.10;5.07;;;;;;;10.10;77.50;101809.22;5006268;28;20264;-53
2022/05/01 02:11:04;;;;;;;4.10;3.70;;;;;;;10.02;77.60;101809.09;4992189;28;20241;-53
2022/05/01 02:13:30;;;;;;;4.93;4.00;;;;;;;9.96;77.91;101809.84;4986234;28;20253;-53
2022/05/01 02:15:57;;;;;;;5.37;4.60;;;;;;;9.89;78.51;101807.97;4985297;28;20253;-51
2022/05/01 02:18:23;;;;;;;7.10;4.37;;;;;;;9.85;79.30;101806.13;4985667;28;20237;-53
2022/05/01 02:23:33;;;;;;;6.67;4.53;;;;;;;9.85;78.87;101814.00;4984615;28;20299;-53
2022/05/01 02:26:02;;;;;;;5.07;4.30;;;;;;;9.75;79.00;101810.31;4994766;28;20237;-54
2022/05/01 02:28:29;;;;;;;5.30;4.40;;;;;;;9.72;78.92;101812.00;4985166;28;20585;-53
2022/05/01 02:30:56;;;;;;;6.17;3.93;;;;;;;9.65;79.43;101818.88;4996388;28;20287;-54
2022/05/01 02:33:22;;;;;;;3.93;3.60;;;;;;;9.68;79.88;101812.78;5005565;28;20290;-54
2022/05/01 02:35:49;;;;;;;4.13;3.73;;;;;;;9.63;79.85;101809.22;5004906;28;20241;-53
2022/05/01 02:38:15;;;;;;;5.57;4.27;;;;;;;9.55;80.39;101809.06;5000155;28;20283;-53
2022/05/01 02:40:43;;;;;;;4.63;4.20;;;;;;;9.50;80.20;101808.06;4995125;28;20287;-53
2022/05/01 02:43:09;;;;;;;6.80;4.23;;;;;;;9.44;79.51;101814.06;5001337;28;20234;-53
2022/05/01 02:45:38;;;;;;;4.60;4.10;;;;;;;9.40;79.65;101806.09;4988496;28;20321;-53
2022/05/01 02:48:05;;;;;;;5.00;3.70;;;;;;;9.36;79.66;101804.28;5009662;28;20296;-53
2022/05/01 02:50:31;;;;;;;5.20;3.90;;;;;;;9.33;79.80;101805.97;4992470;28;20776;-53
2022/05/01 02:52:59;;;;;;;5.07;3.30;;;;;;;9.32;79.34;101811.19;5006265;28;20241;-52
2022/05/01 02:55:25;;;;;;;5.63;4.00;;;;;;;9.32;79.26;101808.56;4994175;28;20799;-53
2022/05/01 02:57:51;;;;;;;4.60;3.20;;;;;;;9.32;79.50;101805.94;5005407;28;20295;-53
2022/05/01 03:00:18;;;;;;;4.70;3.87;;;;;;;9.31;80.11;101801.56;5002421;28;20225;-54
2022/05/01 03:02:47;;;;;;;4.13;3.83;;;;;;;9.18;79.58;101799.53;5005655;28;20237;-54
2022/05/01 03:05:14;;;;;;;5.43;3.70;;;;;;;9.16;80.66;101807.34;4996148;28;20237;-55
2022/05/01 03:07:40;;;;;;;4.00;3.60;;;;;;;9.12;80.83;101799.38;4987771;28;20285;-53
2022/05/01 03:10:08;;;;;;;3.93;3.57;;;;;;;9.08;81.44;101798.41;5011067;28;20262;-53
2022/05/01 03:12:37;;;;;;;5.10;4.30;;;;;;;9.06;81.63;101795.78;5011889;28;20240;-54
2022/05/01 03:15:04;;;;;;;4.23;3.70;;;;;;;9.03;81.21;101792.22;4998742;28;20260;-53
2022/05/01 03:22:10;;;;;;;4.93;3.57;;;;;;;9.00;81.67;101790.41;4998415;28;20316;-53
2022/05/01 03:23:03;;;;;;;4.03;3.63;;;;;;;9.03;82.36;101797.44;5008990;28;20240;-54
2022/05/01 03:25:29;;;;;;;4.50;3.63;;;;;;;9.04;82.32;101794.84;5009252;28;20249;-53
2022/05/01 03:27:55;;;;;;;4.60;3.87;;;;;;;9.07;82.55;101792.31;5008969;28;20747;-52
2022/05/01 03:30:22;;;;;;;5.73;4.40;;;;;;;9.04;83.34;101800.09;5007069;28;20287;-52
2022/05/01 03:32:49;;;;;;;6.87;3.93;;;;;;;8.94;83.67;101795.50;5005997;28;20236;-54
2022/05/01 03:35:15;;;;;;;4.20;3.80;;;;;;;8.86;84.26;101791.81;4991334;28;20743;-53
2022/05/01 03:37:43;;;;;;;6.67;4.63;;;;;;;8.86;84.72;101799.69;4993469;28;20244;-52
2022/05/01 03:40:11;;;;;;;5.47;4.93;;;;;;;8.86;84.88;101802.31;5000233;28;20237;-53
2022/05/01 03:42:38;;;;;;;7.40;4.53;;;;;;;8.84;84.63;101798.75;5005980;28;20242;-56
2022/05/01 03:45:05;;;;;;;4.67;3.60;;;;;;;8.86;84.66;101797.06;5008663;28;20307;-54
2022/05/01 03:47:32;;;;;;;4.50;4.07;;;;;;;8.84;84.80;101798.75;5008924;28;20238;-53
2022/05/01 03:49:59;;;;;;;7.90;5.00;;;;;;;8.87;85.20;101809.28;4998018;28;20237;-55
2022/05/01 03:52:25;;;;;;;6.80;4.73;;;;;;;8.83;85.44;101807.47;4988581;28;20230;-53
2022/05/01 03:54:53;;;;;;;6.43;4.73;;;;;;;8.86;85.55;101807.53;4994372;28;20246;-53
2022/05/01 03:57:20;;;;;;;6.27;4.47;;;;;;;8.87;85.34;101814.53;4988658;28;20235;-55
2022/05/01 03:59:47;;;;;;;9.23;6.00;;;;;;;8.96;85.70;101809.53;5003919;28;20323;-53
2022/05/01 04:02:14;;;;;;;9.17;7.77;;;;;;;8.90;86.18;101817.22;5007630;28;20233;-53
2022/05/01 04:04:40;;;;;;;7.63;6.93;;;;;;;8.80;86.31;101803.03;4998094;28;20759;-54
2022/05/01 04:07:07;;;;;;;11.13;7.23;;;;;;;8.71;86.92;101808.06;4996210;28;20265;-54
2022/05/01 04:09:33;;;;;;;10.10;7.33;;;;;;;8.66;87.25;101800.94;5006284;28;20650;-53
2022/05/01 04:12:01;;;;;;;6.73;6.07;;;;;;;8.62;87.58;101804.34;5005726;28;20237;-54
2022/05/01 04:14:28;;;;;;;6.63;5.63;;;;;;;8.62;88.02;101807.84;5004309;28;20229;-54
2022/05/01 04:16:56;;;;;;;4.90;4.50;;;;;;;8.63;87.78;101803.47;4996830;28;20261;-53
2022/05/01 04:19:22;;;;;;;4.63;4.20;;;;;;;8.56;87.33;101803.34;5005783;28;20310;-54
2022/05/01 04:21:49;;;;;;;5.10;4.10;;;;;;;8.56;87.46;101805.97;4992932;28;20292;-53
2022/05/01 04:24:15;;;;;;;5.67;3.90;;;;;;;8.62;87.46;101813.06;4999059;28;20643;-54
2022/05/01 04:26:41;;;;;;;4.07;3.77;;;;;;;8.67;86.60;101815.78;5006597;28;20665;-53
2022/05/01 04:31:59;;;;;;;8.00;4.97;;;;;;;8.78;86.34;101815.22;4986179;28;20447;-53
2022/05/01 04:34:25;;;;;;;4.43;3.83;;;;;;;8.77;86.42;101813.44;4987974;28;20230;-52
2022/05/01 04:36:52;;;;;;;5.00;3.77;;;;;;;8.79;86.68;101813.47;4997411;28;20295;-55
2022/05/01 04:39:18;;;;;;;4.40;4.00;;;;;;;8.81;86.39;101807.44;4999819;28;20253;-52
2022/05/01 04:41:44;;;;;;;5.87;3.97;;;;;;;8.81;86.32;101811.78;4997818;28;20265;-52
2022/05/01 04:44:12;;;;;;;4.63;4.23;;;;;;;8.83;86.55;101812.69;5007191;28;20303;-52
2022/05/01 04:46:38;;;;;;;4.57;4.17;;;;;;;8.87;86.43;101797.94;4992752;28;20799;-53
2022/05/01 04:49:05;;;;;;;4.00;3.70;;;;;;;8.83;86.22;101803.09;4999677;28;20633;-53
2022/05/01 04:51:32;;;;;;;5.47;4.37;;;;;;;8.85;86.22;101811.00;4993919;28;20240;-53
2022/05/01 04:53:58;;;;;;;4.80;3.70;;;;;;;8.89;86.01;101812.84;5006230;28;20233;-55
2022/05/01 04:59:08;;;;;;;5.50;3.97;;;;;;;9.01;84.72;101818.34;4980102;28;20243;-53
2022/05/01 05:01:36;;;;;;;4.30;3.93;;;;;;;9.05;84.44;101817.56;5000106;28;20241;-52
2022/05/01 05:04:03;;;;;;;8.27;4.00;;;;;;;9.10;84.12;101825.56;5005461;28;20254;-53
2022/05/01 05:06:29;;;;;;;5.13;4.17;;;;;;;9.12;84.01;101813.34;4994193;28;20588;-54
2022/05/01 05:11:40;;;;;;;6.47;3.50;;;;;;;9.26;82.63;101822.41;4997115;28;20319;-54
2022/05/01 05:14:06;;;;;;;6.33;3.57;;;;;;;9.34;82.48;101827.84;4986805;28;20389;-54
2022/05/01 05:16:33;;;;;;;6.83;4.10;;;;;;;9.34;82.49;101827.84;4993366;28;20264;-53
2022/05/01 05:19:01;;;;;;;4.30;3.90;;;;;;;9.41;82.16;101826.22;5005261;28;20303;-53
2022/05/01 05:21:27;;;;;;;7.10;3.93;;;;;;;9.46;81.07;101830.69;5000238;28;20294;-53
2022/05/01 05:23:55;;;;;;;4.77;3.87;;;;;;;9.52;80.81;101832.59;5005361;28;20241;-53
2022/05/01 05:26:21;;;;;;;3.93;3.50;;;;;;;9.55;80.77;101836.16;4998907;28;20265;-52
2022/05/01 05:28:48;;;;;;;4.90;3.80;;;;;;;9.64;80.43;101827.56;4985125;28;20328;-52
2022/05/01 05:31:14;;;;;;;4.00;3.43;;;;;;;9.71;80.76;101833.84;4987480;28;20684;-53
2022/05/01 05:33:40;;;;;;;4.77;3.90;;;;;;;9.81;80.30;101835.78;4986387;28;20242;-54
2022/05/01 05:36:08;;;;;;;3.83;3.53;;;;;;;9.87;78.87;101833.28;5006208;28;20307;-53
2022/05/01 05:38:35;;;;;;;4.63;4.03;;;;;;;9.91;78.22;101837.75;5004692;28;20247;-52
2022/05/01 05:41:01;;;;;;;3.87;3.27;;;;;;;9.99;78.32;101836.13;5002538;28;20233;-53
2022/05/01 05:43:27;;;;;;;5.00;3.70;;;;;;;10.11;77.99;101840.75;5005923;28;20234;-54
2022/05/01 05:45:54;;;;;;;5.93;4.40;;;;;;;10.20;78.33;101840.91;4993284;28;20821;-52
2022/05/01 05:48:20;;;;;;;4.07;3.20;;;;;;;10.31;77.40;101840.25;4988751;28;20304;-53
2022/05/01 05:50:46;;;;;;;3.33;3.10;;;;;;;10.44;77.22;101837.88;4990712;28;20240;-53
2022/05/01 05:53:14;;;;;;;6.50;3.50;;;;;;;10.58;77.08;101840.72;5005471;28;20237;-53
2022/05/01 05:55:40;;;;;;;4.03;2.77;;;;;;;10.72;76.91;101835.72;5004640;28;20714;-54
2022/05/01 05:58:07;;;;;;;4.50;3.67;;;;;;;10.86;76.40;101844.69;4986490;28;20250;-52
2022/05/01 06:00:33;;;;;;;3.90;3.27;;;;;;;11.13;75.25;101832.84;5000220;28;20256;-53
2022/05/01 06:03:00;;;;;;;5.93;4.03;;;;;;;11.25;73.88;101840.88;4985066;28;20234;-52
2022/05/01 06:05:26;;;;;;;5.27;3.80;;;;;;;11.37;73.24;101838.44;4985372;28;20292;-53
2022/05/01 06:07:52;;;;;;;4.00;3.60;;;;;;;11.49;72.26;101842.09;4989171;28;20671;-53
2022/05/01 06:10:21;;;;;;;5.40;3.83;;;;;;;11.50;71.64;101843.84;4988701;28;20264;-53
2022/05/01 06:12:47;;;;;;;5.10;3.83;;;;;;;11.62;71.46;101849.28;4988811;28;20237;-53
2022/05/01 06:15:14;;;;;;;4.30;3.90;;;;;;;11.69;71.18;101846.72;4985863;28;20257;-53
2022/05/01 06:17:40;;;;;;;3.47;3.17;;;;;;;11.80;70.95;101843.34;4990882;28;20293;-54
2022/05/01 06:20:08;;;;;;;3.50;2.97;;;;;;;11.87;70.91;101846.09;4998867;28;20728;-53
2022/05/01 06:22:34;;;;;;;6.80;3.10;;;;;;;12.04;69.50;101841.03;5000186;28;20260;-53
2022/05/01 06:25:00;;;;;;;5.65;4.18;;;;;;;11.96;70.15;101845.31;4990993;28;20246;-54
2022/05/01 06:27:28;;;;;;;5.65;4.00;;;;;;;11.99;69.75;101844.47;4988676;28;20280;-54
2022/05/01 06:29:54;;;;;;;5.72;3.50;;;;;;;12.01;69.86;101843.63;5004904;28;20951;-52
2022/05/01 06:32:21;;;;;;;6.03;4.68;;;;;;;12.02;69.95;101841.88;4992999;28;20256;-53
2022/05/01 06:34:47;;;;;;;6.63;4.43;;;;;;;12.01;70.03;101842.75;5003403;28;20303;-53
2022/05/01 06:37:14;;;;;;;4.95;4.30;;;;;;;12.06;69.62;101846.28;4989226;28;20264;-53
2022/05/01 06:39:40;;;;;;;4.03;3.45;;;;;;;12.07;69.59;101848.06;4996699;28;20237;-53
2022/05/01 06:42:09;;;;;;;5.65;4.07;;;;;;;12.05;69.42;101850.69;4994523;28;20261;-52
2022/05/01 06:44:37;;;;;;;6.68;4.95;;;;;;;12.08;69.79;101861.25;4991616;28;20238;-53
2022/05/01 06:47:05;;;;;;;8.65;4.55;;;;;;;12.12;70.07;101856.91;5001814;28;20265;-54
2022/05/01 06:49:31;;;;;;;7.00;4.28;;;;;;;12.18;70.29;101862.25;4988540;28;20298;-53
2022/05/01 06:51:58;;;;;;;6.40;4.15;;;;;;;12.29;68.88;101860.59;4986224;28;20296;-53
2022/05/01 06:54:24;;;;;;;5.20;4.22;;;;;;;12.32;68.62;101860.63;4988504;28;20720;-52
2022/05/01 06:56:50;;;;;;;5.88;4.10;;;;;;;12.39;68.43;101867.72;4991628;28;20385;-53
2022/05/01 06:59:17;;;;;;;6.68;4.72;;;;;;;12.45;68.03;101869.50;5004796;28;20233;-54
2022/05/01 07:01:47;;;;;;;6.35;4.03;;;;;;;12.55;68.08;101867.84;5007249;28;20915;-56
2022/05/01 07:04:13;;;;;;;4.93;3.22;;;;;;;12.69;67.84;101865.34;5008906;28;20324;-53
2022/05/01 07:06:40;;;;;;;3.88;3.33;;;;;;;12.82;67.10;101860.19;5007825;28;20315;-54
2022/05/01 07:09:07;;;;;;;6.82;4.32;;;;;;;13.14;65.11;101865.69;5007377;28;20264;-52
2022/05/01 07:11:33;;;;;;;7.97;4.50;;;;;;;13.17;64.43;101869.22;5008745;28;20233;-53
2022/05/01 07:14:00;;;;;;;5.07;3.97;;;;;;;13.33;64.47;101860.53;4989460;28;20238;-52
2022/05/01 07:16:26;;;;;;;8.20;4.10;;;;;;;13.48;64.17;101862.38;5007940;28;20574;-54
2022/05/01 07:18:54;;;;;;;5.60;4.38;;;;;;;13.71;62.08;101866.03;4991399;28;20799;-54
2022/05/01 07:21:21;;;;;;;4.18;3.65;;;;;;;13.80;60.81;101863.44;4988248;28;20269;-52
2022/05/01 07:23:47;;;;;;;4.30;3.53;;;;;;;13.60;60.56;101865.09;4996900;28;20867;-53
2022/05/01 07:26:13;;;;;;;4.50;3.85;;;;;;;13.70;61.18;101863.38;5004539;28;20295;-54
2022/05/01 07:28:40;;;;;;;4.72;4.30;;;;;;;13.61;60.55;101869.50;4995503;28;20284;-52
2022/05/01 07:31:07;;;;;;;4.40;3.58;;;;;;;13.78;61.52;101862.53;5005802;28;20244;-53
2022/05/01 07:33:33;;;;;;;5.53;3.53;;;;;;;13.88;60.19;101865.22;4992916;28;20253;-52
2022/05/01 07:36:01;;;;;;;3.85;3.33;;;;;;;13.98;58.49;101857.31;5005724;28;20241;-53
2022/05/01 07:38:27;;;;;;;3.72;3.10;;;;;;;14.07;58.52;101862.66;4996774;28;20240;-53
2022/05/01 07:40:53;;;;;;;3.75;3.25;;;;;;;14.10;57.14;101867.03;5003652;28;20601;-53
2022/05/01 07:43:20;;;;;;;7.20;3.72;;;;;;;14.04;55.38;101873.19;5003633;28;20304;-53
2022/05/01 07:45:46;;;;;;;5.03;3.50;;;;;;;13.96;56.82;101874.03;4996563;28;20246;-54
2022/05/01 07:48:12;;;;;;;4.93;3.13;;;;;;;13.89;55.58;101856.41;4999515;28;20529;-52
2022/05/01 07:50:39;;;;;;;4.18;2.75;;;;;;;13.95;55.96;101864.34;5006274;28;20236;-53
2022/05/01 07:53:09;;;;;;;4.18;2.90;;;;;;;13.98;56.05;101867.00;5004876;28;20229;-53
2022/05/01 07:55:35;;;;;;;3.95;2.80;;;;;;;13.99;56.76;101860.84;4983795;28;20246;-53
2022/05/01 07:58:02;;;;;;;5.35;3.00;;;;;;;14.07;55.28;101864.38;4998699;28;21797;-53
2022/05/01 08:00:28;;;;;;;3.95;3.05;;;;;;;14.09;54.30;101857.34;4997492;28;20234;-53
2022/05/01 08:05:40;;;;;;;3.78;2.97;;;;;;;14.39;54.04;101863.56;4995428;28;20251;-53
2022/05/01 08:08:08;;;;;;;4.40;3.03;;;;;;;14.38;54.40;101860.03;4998664;28;20636;-53
2022/05/01 08:10:37;;;;;;;4.70;2.58;;;;;;;14.51;52.26;101864.50;4993076;28;20729;-53
2022/05/01 08:13:03;;;;;;;3.47;3.03;;;;;;;14.60;52.37;101861.00;4999966;28;20935;-52
2022/05/01 08:15:30;;;;;;;3.33;2.95;;;;;;;14.62;52.04;101861.88;4990223;28;20265;-53
2022/05/01 08:21:04;;;;;;;3.10;2.80;;;;;;;14.63;51.46;101866.25;4996842;28;20668;-53
2022/05/01 08:23:30;;;;;;;3.20;2.92;;;;;;;14.45;51.93;101864.44;4996430;28;20256;-54
2022/05/01 08:25:58;;;;;;;2.33;2.10;;;;;;;14.50;52.08;101862.75;5006941;28;20268;-53
2022/05/01 08:28:24;;;;;;;3.92;2.88;;;;;;;14.46;52.76;101865.31;4999218;28;20257;-54
2022/05/01 08:30:50;;;;;;;3.58;2.53;;;;;;;14.52;52.60;101854.81;4988665;28;20759;-54
2022/05/01 08:33:17;;;;;;;3.42;2.88;;;;;;;14.42;52.81;101860.94;5006057;28;20241;-53
2022/05/01 08:35:43;;;;;;;3.30;3.00;;;;;;;14.46;52.15;101862.69;5001665;28;20237;-54
2022/05/01 08:38:10;;;;;;;3.22;2.72;;;;;;;14.29;51.61;101868.84;5004796;28;20247;-52
2022/05/01 08:40:38;;;;;;;4.40;2.80;;;;;;;14.25;52.74;101863.53;5004874;28;20627;-53
2022/05/01 08:43:04;;;;;;;3.25;2.10;;;;;;;14.25;55.00;101866.19;5005196;28;20501;-53
2022/05/01 08:45:41;;;;;;;4.80;2.53;;;;;;;14.18;53.78;101867.03;4997805;28;20720;-53
2022/05/01 08:48:09;;;;;;;2.95;2.75;;;;;;;14.26;51.94;101863.56;5001536;28;20236;-53
2022/05/01 08:50:36;;;;;;;4.22;2.33;;;;;;;14.30;50.53;101867.97;4995192;28;20292;-53
2022/05/01 08:53:03;;;;;;;2.63;2.33;;;;;;;14.39;48.77;101868.84;4993087;28;20676;-52
2022/05/01 08:55:31;;;;;;;3.30;2.45;;;;;;;14.35;48.64;101864.44;4986646;28;20238;-51
2022/05/01 08:58:00;;;;;;;2.17;1.70;;;;;;;14.33;48.39;101865.31;4993743;28;20285;-52
2022/05/01 09:00:27;;;;;;;2.35;2.00;;;;;;;14.23;48.18;101868.81;4994524;28;20229;-51
2022/05/01 09:02:53;;;;;;;4.40;1.80;;;;;;;14.20;48.84;101868.81;4987861;28;20253;-52
2022/05/01 09:05:20;;;;;;;2.83;1.60;;;;;;;14.31;47.74;101872.34;4990105;28;20237;-52
2022/05/01 09:07:46;;;;;;;1.92;1.83;;;;;;;14.31;47.83;101866.19;4996089;28;20703;-56
2022/05/01 09:10:14;;;;;;;2.25;1.63;;;;;;;14.31;47.44;101867.06;4999050;28;20678;-53
2022/05/01 09:12:49;;;;;;;4.20;1.88;;;;;;;14.37;47.88;101866.22;4990424;28;20233;-53
2022/05/01 09:15:29;;;;;;;3.40;2.35;;;;;;;14.33;48.00;101865.31;4982676;28;20642;-53
2022/05/01 09:18:00;;;;;;;3.08;1.85;;;;;;;14.38;48.14;101872.38;4994127;28;20264;-52
2022/05/01 09:20:27;;;;;;;2.45;2.00;;;;;;;14.43;46.82;101871.50;4987541;28;20309;-52
2022/05/01 09:22:57;;;;;;;4.57;1.45;;;;;;;14.39;47.10;101866.19;4992315;28;20238;-52
2022/05/01 09:25:26;;;;;;;2.08;1.60;;;;;;;14.38;47.15;101861.81;4982312;28;20383;-52
2022/05/01 09:27:56;;;;;;;2.88;2.22;;;;;;;14.28;47.79;101869.72;4990269;28;20242;-52
2022/05/01 09:30:29;;;;;;;3.97;2.00;;;;;;;14.24;47.85;101870.59;4983261;28;20319;-52
2022/05/01 09:32:58;;;;;;;1.60;1.50;;;;;;;14.25;47.54;101872.38;4990137;28;20295;-52
2022/05/01 09:35:31;;;;;;;2.30;1.90;;;;;;;14.26;47.20;101871.47;5003382;28;20237;-53
2022/05/01 09:38:25;;;;;;;2.50;2.30;;;;;;;14.23;47.47;101866.19;5002723;28;20233;-53
2022/05/01 09:40:54;;;;;;;2.60;2.40;;;;;;;14.33;46.97;101870.63;4945419;28;20233;-53
2022/05/01 09:43:37;;;;;;;3.78;2.13;;;;;;;14.31;47.52;101864.44;4995163;28;20242;-52
2022/05/01 09:46:14;;;;;;;3.38;2.78;;;;;;;14.30;47.39;101867.09;4980702;28;20248;-52
2022/05/01 09:48:43;;;;;;;2.17;1.98;;;;;;;14.29;47.46;101868.84;4988065;28;20246;-53
2022/05/01 09:51:17;;;;;;;3.72;2.30;;;;;;;14.30;46.25;101865.31;4989086;28;20233;-54
2022/05/01 09:53:44;;;;;;;2.45;1.80;;;;;;;14.26;46.01;101858.28;4985372;28;20236;-53
2022/05/01 09:56:13;;;;;;;5.28;3.17;;;;;;;14.21;46.24;101859.13;4983364;28;20242;-54
2022/05/01 09:58:40;;;;;;;5.28;2.63;;;;;;;14.13;46.99;101860.88;4999474;28;20308;-52
2022/05/01 10:01:11;;;;;;;4.07;1.65;;;;;;;14.16;46.78;101861.78;4984252;28;20296;-52
2022/05/01 10:03:40;;;;;;;2.95;2.58;;;;;;;14.15;46.98;101854.75;4996803;28;20233;-52
2022/05/01 10:06:10;;;;;;;3.45;2.55;;;;;;;14.15;47.47;101854.75;4987873;28;20245;-54
2022/05/01 10:08:38;;;;;;;2.83;2.30;;;;;;;14.20;46.87;101857.38;4998053;28;20716;-53
2022/05/01 10:11:05;;;;;;;3.38;2.15;;;;;;;14.20;46.47;101852.97;4982574;28;20242;-52
2022/05/01 10:13:32;;;;;;;2.95;2.00;;;;;;;14.27;46.56;101860.03;4982599;28;20278;-53
2022/05/01 10:16:03;;;;;;;4.20;3.25;;;;;;;14.22;46.99;101855.63;4987239;28;20237;-53
2022/05/01 10:18:30;;;;;;;4.78;3.75;;;;;;;14.17;47.46;101855.59;4991868;28;20233;-52
2022/05/01 10:20:56;;;;;;;4.45;3.80;;;;;;;14.20;47.41;101860.03;5005076;28;20253;-52
2022/05/01 10:23:24;;;;;;;3.40;2.95;;;;;;;14.27;46.78;101857.38;5007239;28;20244;-54
2022/05/01 10:25:56;;;;;;;3.78;2.83;;;;;;;14.20;47.30;101852.97;5011552;28;20331;-53
2022/05/01 10:29:03;;;;;;;2.88;2.13;;;;;;;14.21;47.78;101864.41;4999171;28;20769;-53
2022/05/01 10:34:44;;;;;;;2.10;1.83;;;;;;;14.31;47.31;101847.69;4985036;28;20316;-52
2022/05/01 10:37:30;;;;;;;3.03;2.40;;;;;;;14.38;47.60;101845.94;4988298;28;20239;-52
2022/05/01 10:39:59;;;;;;;3.05;1.80;;;;;;;14.47;47.75;101845.97;4996766;28;20228;-52
2022/05/01 10:42:33;;;;;;;3.65;2.30;;;;;;;14.40;48.10;101844.22;5006799;28;20237;-53
2022/05/01 10:44:59;;;;;;;2.90;2.70;;;;;;;14.40;47.98;101845.09;5007570;28;20263;-52
2022/05/01 10:47:36;;;;;;;2.90;2.00;;;;;;;14.23;49.10;101846.81;4996180;28;20280;-52
2022/05/01 10:50:07;;;;;;;1.92;1.83;;;;;;;14.23;47.98;101839.78;5000411;28;20299;-51
2022/05/01 10:52:34;;;;;;;2.58;1.98;;;;;;;14.33;47.78;101844.19;4989477;28;21195;-54
2022/05/01 10:55:04;;;;;;;3.70;2.15;;;;;;;14.45;47.57;101843.31;4994882;28;20840;-51
2022/05/01 10:57:31;;;;;;;2.40;2.20;;;;;;;14.54;47.16;101835.44;4993875;28;20265;-52
2022/05/01 11:00:08;;;;;;;6.47;3.08;;;;;;;14.60;47.10;101842.50;4989532;28;20241;-53
2022/05/01 11:02:39;;;;;;;2.63;1.63;;;;;;;14.62;46.85;101835.44;4996945;28;20241;-53
2022/05/01 11:05:08;;;;;;;3.70;3.28;;;;;;;14.72;46.93;101841.59;4986835;28;20242;-53
2022/05/01 11:07:35;;;;;;;6.63;4.50;;;;;;;14.63;46.71;101834.53;4988243;28;20280;-52
2022/05/01 11:10:05;;;;;;;3.03;2.72;;;;;;;14.61;47.83;101836.31;4991656;28;20267;-51
2022/05/01 11:12:32;;;;;;;3.63;2.85;;;;;;;14.64;48.32;101833.69;4996698;28;20606;-52
2022/05/01 11:15:00;;;;;;;1.90;1.70;;;;;;;14.64;48.11;101838.97;4986658;28;20241;-53
2022/05/01 11:17:55;;;;;;;2.03;1.80;;;;;;;14.62;49.95;101835.44;4993425;28;20356;-51
2022/05/01 11:20:29;;;;;;;2.05;1.95;;;;;;;14.64;49.28;101833.69;4993961;28;20279;-52
2022/05/01 11:22:55;;;;;;;2.78;2.08;;;;;;;14.61;49.44;101828.41;5008907;28;20244;-53
2022/05/01 11:25:31;;;;;;;1.77;1.67;;;;;;;14.54;48.97;101834.56;5006559;28;20233;-52
2022/05/01 11:27:57;;;;;;;3.95;2.17;;;;;;;14.55;48.71;101826.63;4992474;28;20242;-51
2022/05/01 11:30:34;;;;;;;3.60;1.90;;;;;;;14.62;48.00;101827.50;4993827;28;20230;-51
2022/05/01 11:33:01;;;;;;;2.22;1.77;;;;;;;14.63;48.25;101816.03;5002447;28;20302;-51
2022/05/01 11:35:52;;;;;;;2.28;1.70;;;;;;;14.64;47.78;101819.59;4989760;28;20348;-52
2022/05/01 11:38:18;;;;;;;3.85;2.72;;;;;;;14.74;47.80;101819.59;4988219;28;20234;-51
2022/05/01 11:40:55;;;;;;;3.55;2.60;;;;;;;14.85;47.88;101821.31;5003208;28;20241;-52
2022/05/01 11:43:22;;;;;;;2.42;2.22;;;;;;;14.87;47.45;101819.56;5006824;28;20232;-52
2022/05/01 11:45:49;;;;;;;6.18;3.10;;;;;;;15.01;46.47;101820.41;5000661;28;20241;-53
2022/05/01 11:48:16;;;;;;;2.75;2.55;;;;;;;15.03;46.72;101810.72;4995091;28;20237;-52
2022/05/01 11:50:44;;;;;;;4.53;2.40;;;;;;;15.00;48.02;101816.00;5002367;28;20260;-54
2022/05/01 11:53:19;;;;;;;3.83;2.40;;;;;;;15.07;46.83;101816.88;5000613;28;20232;-53
2022/05/01 12:04:23;;;;;;;2.90;2.38;;;;;;;15.25;45.84;101809.78;4985434;28;20236;-53